Airfield :
LOGIN :

Register | Disclaimer

   EN    FR    IT 

 










Legend :    VFR   Marginal VFR   IFR   Intensive IFR   Very Intensive IFR
Visi :
Ceiling :
>= 8 km
>= 3000ft
5 to 8 km
1000 to 3000 ft
1500m to 5 km
500 to 1000 ft
800 to 1500m
200 to 500 ft
< 800m
< 200 ft
Symbols :   Thunderstorms  Fog  Heavy snow  Heavy precipitations  Wind > 20 kt
SIGMETs :     Misc.  Thunderstorms  Icing  Turbulence  Mountain Waves  Volcanic Ashes







- Airport Elevation : 325 ft
- IATA code : BES
- Download approach charts


LFRB - Brest

CURRENT METAR :
  • 241830Z AUTO 34010KT 9999 OVC020 14/09 Q1021 BECMG BKN010

EXPIRED METARs :
  • 241800Z AUTO 34009KT 9999 OVC018 15/10 Q1021 BECMG BKN010
  • 241730Z AUTO 34010KT 310V010 9999 BKN020 OVC030 15/10 Q1021 BECMG BKN010
  • 241700Z AUTO 33011KT 300V360 9999 OVC020 16/10 Q1021 BECMG BKN010
  • 241630Z AUTO 33011KT 9999 OVC018 15/10 Q1022 BECMG BKN010
  • 241600Z AUTO 33010KT 300V360 9999 BKN017 OVC023 15/10 Q1022 NOSIG

TAF TAF LFRB
Valid from the 24 at 18:00 until the 26 at 00:00 UTC


241700Z 2418/2524 33010KT 9999 BKN016 BKN025
BECMG 2418/2421 BKN010
TEMPO 2421/2506 OVC008
BECMG 2509/2512 BKN020
BECMG 2516/2518 BKN014
BECMG 2518/2521 OVC010
ATIS : +33 2 98 32 02 71
No reported NOTAMs for that airfield.



MET'MAP, your aeronautical weather chart ! - Copyright ORBIFLY December 2007 - Disclaimer

ORBIFLY MET'MAP TEAM :

Programming & Development : Alexandra Zaïnal
Concept & Development : Baudouin d'Aumeries
Co-Development & Prog : Marc-Olivier Méhu
Technical & hardware support : Manuel Goepfert

Contact : metmap@orbifly.com




SOURCES & CREDITS :

   NOAA